Аэропорт: Шымкент. Шымкент

ICAO: UAII

METAR:
2019/01/21 23:00
UAII 212300Z VRB01MPS 4000 BR NSC M02/M04 Q1024 R28/0///70 NOSIG RMK QFE730/0974
METAR:
2019/01/21 18:18
TAF UAII 211700Z 2118/2218 08004MPS 3000 BR SCT010 BKN030 OVC100 TX03/2209Z TNM03/2201Z 
      TEMPO 2118/2204 12004MPS 0200 FZFG VV001 
      BECMG 2205/2207 33005MPS 6000 NSW 
      TEMPO 2213/2218 VRB01MPS 0500 FZFG VV002